Time;durP1;ratioP1;P1;durP2;ratioP2;P2;SDS_P1;SDS_P2;PMS_P1;PMS_P2;Temp;Humidity;BMP_temperature;BMP_pressure;BME280_temperature;BME280_humidity;BME280_pressure;Samples;Min_cycle;Max_cycle;Signal;HPM_P1;HPM_P2
2022/01/04 00:01:20;;;;;;;7.87;5.47;;;6.60;75.60;;;;;;6279093;28;20199;-59
2022/01/04 00:04:21;;;;;;;7.43;5.50;;;6.60;75.70;;;;;;6262059;28;20213;-59
2022/01/04 00:07:22;;;;;;;8.23;5.30;;;6.60;75.80;;;;;;6278572;28;20199;-60
2022/01/04 00:10:26;;;;;;;7.40;5.50;;;6.50;76.00;;;;;;6263666;28;20197;-59
2022/01/04 00:13:26;;;;;;;9.20;5.00;;;6.40;76.20;;;;;;6286392;28;20274;-60
2022/01/04 00:16:27;;;;;;;5.77;4.43;;;6.30;76.50;;;;;;6290823;28;20200;-59
2022/01/04 00:19:28;;;;;;;10.03;4.77;;;6.30;76.80;;;;;;6271967;28;20191;-59
2022/01/04 00:22:29;;;;;;;6.37;4.40;;;6.20;76.40;;;;;;6272038;28;20191;-59
2022/01/04 00:25:30;;;;;;;5.40;4.27;;;6.20;76.40;;;;;;6305013;28;20225;-60
2022/01/04 00:28:31;;;;;;;5.27;4.03;;;6.10;76.90;;;;;;6288708;28;20196;-59
2022/01/04 00:31:32;;;;;;;7.33;4.27;;;6.00;77.10;;;;;;6278759;28;20192;-59
2022/01/04 00:34:33;;;;;;;4.63;3.80;;;5.90;77.00;;;;;;6295916;28;20309;-59
2022/01/04 00:37:34;;;;;;;6.30;4.20;;;5.80;77.20;;;;;;6301979;28;20196;-59
2022/01/04 00:40:35;;;;;;;8.37;5.00;;;5.80;77.50;;;;;;6302747;28;20188;-60
2022/01/04 00:43:36;;;;;;;9.37;4.63;;;5.60;77.60;;;;;;6320577;28;20216;-60
2022/01/04 00:46:37;;;;;;;6.47;4.13;;;5.50;77.90;;;;;;6285993;28;20249;-59
2022/01/04 00:49:38;;;;;;;6.93;4.30;;;5.50;78.10;;;;;;6304399;28;20188;-60
2022/01/04 00:52:39;;;;;;;6.77;4.17;;;5.40;77.90;;;;;;6292354;28;20249;-59
2022/01/04 00:55:40;;;;;;;6.50;4.17;;;5.30;77.80;;;;;;6281261;28;20202;-59
2022/01/04 00:58:41;;;;;;;7.27;4.87;;;5.30;78.10;;;;;;6301607;28;20192;-59
2022/01/04 01:01:42;;;;;;;6.93;4.50;;;5.20;78.40;;;;;;6268561;28;20220;-60
2022/01/04 01:04:44;;;;;;;5.73;4.17;;;5.20;78.70;;;;;;6300768;28;20229;-60
2022/01/04 01:07:45;;;;;;;5.13;3.90;;;5.20;78.70;;;;;;6301500;28;20187;-59
2022/01/04 01:10:49;;;;;;;9.00;4.83;;;5.10;78.80;;;;;;6290480;28;20314;-59
2022/01/04 01:13:50;;;;;;;5.83;3.97;;;5.00;78.70;;;;;;6275764;28;20210;-59
2022/01/04 01:16:51;;;;;;;5.80;3.80;;;5.00;78.70;;;;;;6300735;28;20223;-60
2022/01/04 01:19:52;;;;;;;7.03;4.20;;;5.00;78.70;;;;;;6300343;28;20198;-59
2022/01/04 01:22:52;;;;;;;6.03;3.90;;;5.00;78.80;;;;;;6279225;28;20282;-59
2022/01/04 01:25:53;;;;;;;9.10;4.10;;;4.90;78.80;;;;;;6349904;28;20207;-59
2022/01/04 01:28:56;;;;;;;5.47;3.70;;;4.80;78.90;;;;;;6312537;28;20201;-59
2022/01/04 01:31:56;;;;;;;7.50;3.97;;;4.80;79.10;;;;;;6308957;28;20241;-59
2022/01/04 01:34:57;;;;;;;5.00;3.77;;;4.70;79.00;;;;;;6309180;28;20192;-60
2022/01/04 01:37:58;;;;;;;5.70;4.47;;;4.70;79.20;;;;;;6299390;28;20283;-59
2022/01/04 01:40:59;;;;;;;6.50;4.60;;;4.60;79.40;;;;;;6302896;28;20199;-60
2022/01/04 01:44:00;;;;;;;4.60;3.60;;;4.60;79.60;;;;;;6299105;28;20270;-60
2022/01/04 01:47:01;;;;;;;5.10;3.40;;;4.50;79.70;;;;;;6294786;28;20193;-59
2022/01/04 01:50:01;;;;;;;4.77;3.63;;;4.40;79.60;;;;;;6299187;28;20219;-60
2022/01/04 01:53:03;;;;;;;4.23;3.30;;;4.40;79.50;;;;;;6282988;28;20192;-60
2022/01/04 01:56:04;;;;;;;4.87;3.80;;;4.30;79.50;;;;;;6250480;28;20196;-59
2022/01/04 01:59:06;;;;;;;4.10;2.90;;;4.30;79.80;;;;;;6283644;28;20216;-59
2022/01/04 02:02:07;;;;;;;6.73;4.13;;;4.30;80.10;;;;;;6289495;28;20189;-59
2022/01/04 02:05:09;;;;;;;7.13;3.80;;;4.30;80.10;;;;;;6291735;28;20727;-60
2022/01/04 02:08:11;;;;;;;4.20;3.57;;;4.30;80.20;;;;;;6283025;28;20229;-59
2022/01/04 02:11:12;;;;;;;5.13;4.10;;;4.10;80.20;;;;;;6298762;28;20236;-60
2022/01/04 02:14:13;;;;;;;8.93;3.97;;;4.10;80.20;;;;;;6295707;28;20218;-60
2022/01/04 02:17:14;;;;;;;6.67;3.57;;;4.10;80.10;;;;;;6291473;28;20198;-59
2022/01/04 02:20:17;;;;;;;4.90;4.10;;;4.00;80.10;;;;;;6290245;28;20219;-59
2022/01/04 02:23:18;;;;;;;6.83;4.40;;;4.00;80.50;;;;;;6307664;28;20203;-60
2022/01/04 02:26:19;;;;;;;6.07;5.07;;;3.90;80.50;;;;;;6291456;28;20187;-60
2022/01/04 02:29:19;;;;;;;6.23;5.10;;;3.90;80.50;;;;;;6307012;28;20180;-59
2022/01/04 02:32:20;;;;;;;9.10;5.77;;;3.90;80.80;;;;;;6306106;28;20220;-60
2022/01/04 02:35:24;;;;;;;7.27;5.00;;;3.90;80.90;;;;;;6296794;28;20202;-59
2022/01/04 02:38:25;;;;;;;4.07;3.67;;;3.90;80.60;;;;;;6290982;28;20286;-59
2022/01/04 02:41:26;;;;;;;6.40;4.30;;;4.00;80.50;;;;;;6293777;28;20217;-60
2022/01/04 02:44:27;;;;;;;4.40;3.40;;;4.00;80.60;;;;;;6307186;28;20223;-59
2022/01/04 02:47:28;;;;;;;7.53;4.40;;;4.10;80.40;;;;;;6298449;28;20187;-59
2022/01/04 02:50:29;;;;;;;5.30;3.73;;;4.10;80.50;;;;;;6267543;28;20253;-59
2022/01/04 02:53:30;;;;;;;5.87;3.43;;;4.20;80.20;;;;;;6265282;28;20204;-59
2022/01/04 02:56:30;;;;;;;6.53;3.80;;;4.20;80.30;;;;;;6271153;28;20235;-60
2022/01/04 02:59:31;;;;;;;4.33;3.73;;;4.20;80.30;;;;;;6290740;28;20188;-59
2022/01/04 03:02:32;;;;;;;5.17;3.90;;;4.20;80.30;;;;;;6306245;28;20257;-59
2022/01/04 03:05:33;;;;;;;4.53;3.50;;;4.20;80.20;;;;;;6323900;28;20244;-60
2022/01/04 03:08:34;;;;;;;5.20;3.60;;;4.30;80.40;;;;;;6323829;28;20184;-60
2022/01/04 03:11:35;;;;;;;6.63;4.73;;;4.30;80.70;;;;;;6308888;28;20227;-60
2022/01/04 03:14:36;;;;;;;8.30;4.63;;;4.40;80.80;;;;;;6336697;28;20188;-59
2022/01/04 03:17:37;;;;;;;5.93;4.23;;;4.50;80.80;;;;;;6324397;28;20199;-60
2022/01/04 03:20:37;;;;;;;5.10;4.07;;;4.60;80.70;;;;;;6294984;28;20201;-60
2022/01/04 03:23:38;;;;;;;8.07;4.27;;;4.60;80.50;;;;;;6280156;28;20216;-60
2022/01/04 03:26:40;;;;;;;5.90;4.63;;;4.70;80.40;;;;;;6280987;28;20189;-60
2022/01/04 03:29:41;;;;;;;8.27;4.67;;;4.80;80.20;;;;;;6298236;28;20224;-59
2022/01/04 03:32:42;;;;;;;5.97;4.23;;;4.80;80.10;;;;;;6280557;28;20197;-59
2022/01/04 03:35:42;;;;;;;7.13;3.67;;;4.80;79.90;;;;;;6246766;28;20211;-59
2022/01/04 03:38:43;;;;;;;6.97;3.60;;;4.90;79.40;;;;;;6247067;28;20243;-60
2022/01/04 03:41:46;;;;;;;5.97;4.00;;;5.00;79.40;;;;;;6247606;28;20202;-59
2022/01/04 03:44:47;;;;;;;5.57;4.07;;;5.00;79.30;;;;;;6315035;28;20236;-59
2022/01/04 03:47:48;;;;;;;5.73;3.67;;;5.00;79.20;;;;;;6261332;28;20192;-59
2022/01/04 03:50:49;;;;;;;5.97;3.83;;;5.10;79.20;;;;;;6278707;28;20197;-60
2022/01/04 03:53:49;;;;;;;6.27;3.37;;;5.10;79.30;;;;;;6297764;28;20190;-59
2022/01/04 03:56:50;;;;;;;5.43;3.20;;;5.20;79.30;;;;;;6314481;28;20223;-60
2022/01/04 03:59:51;;;;;;;6.20;3.53;;;5.30;79.20;;;;;;6313218;28;20206;-60
2022/01/04 04:02:52;;;;;;;5.70;3.43;;;5.30;79.10;;;;;;6287356;28;20192;-59
2022/01/04 04:05:53;;;;;;;4.60;2.90;;;5.30;79.00;;;;;;6287886;28;20218;-59
2022/01/04 04:08:56;;;;;;;7.63;3.60;;;5.30;79.00;;;;;;6288022;28;20188;-60
2022/01/04 04:11:57;;;;;;;7.93;3.30;;;5.30;78.90;;;;;;6272961;28;20276;-59
2022/01/04 04:15:03;;;;;;;4.07;3.00;;;5.30;78.60;;;;;;6238554;28;20660;-59
2022/01/04 04:18:04;;;;;;;6.67;3.70;;;5.30;78.90;;;;;;6282505;28;20197;-59
2022/01/04 04:21:05;;;;;;;6.13;4.03;;;5.30;78.90;;;;;;6264187;28;20203;-59
2022/01/04 04:24:06;;;;;;;5.00;3.43;;;5.20;78.90;;;;;;6279512;28;20215;-60
2022/01/04 04:27:07;;;;;;;8.37;3.40;;;5.30;79.10;;;;;;6279795;28;20180;-59
2022/01/04 04:30:09;;;;;;;5.23;3.63;;;5.30;78.60;;;;;;6274020;28;20185;-59
2022/01/04 04:33:10;;;;;;;5.33;3.43;;;5.20;78.90;;;;;;6288098;28;20186;-59
2022/01/04 04:36:11;;;;;;;6.80;3.60;;;5.30;78.90;;;;;;6253863;28;20236;-59
2022/01/04 04:39:11;;;;;;;6.00;3.20;;;5.30;79.70;;;;;;6281689;28;20203;-59
2022/01/04 04:42:12;;;;;;;4.27;3.37;;;5.30;79.80;;;;;;6295384;28;20547;-59
2022/01/04 04:45:13;;;;;;;4.20;3.30;;;5.20;79.50;;;;;;6277886;28;20232;-60
2022/01/04 04:48:14;;;;;;;4.93;3.37;;;5.20;79.30;;;;;;6278042;28;20196;-61
2022/01/04 04:51:15;;;;;;;7.23;3.50;;;5.20;79.30;;;;;;6276687;28;20211;-60
2022/01/04 04:54:16;;;;;;;7.63;3.97;;;5.10;79.10;;;;;;6237854;28;20288;-61
2022/01/04 04:57:17;;;;;;;5.57;3.80;;;5.00;79.00;;;;;;6237713;28;20193;-60
2022/01/04 05:00:17;;;;;;;4.03;3.60;;;4.90;79.20;;;;;;6271129;28;20200;-60
2022/01/04 05:03:18;;;;;;;4.97;3.77;;;4.90;79.40;;;;;;6296514;28;20211;-60
2022/01/04 05:06:19;;;;;;;5.30;3.33;;;4.90;79.50;;;;;;6277854;28;20188;-60
2022/01/04 05:09:20;;;;;;;9.13;3.97;;;4.80;79.90;;;;;;6255194;28;20189;-61
2022/01/04 05:12:21;;;;;;;6.20;4.03;;;4.80;80.10;;;;;;6250776;28;20240;-61
2022/01/04 05:15:22;;;;;;;8.17;3.53;;;4.80;80.00;;;;;;6288938;28;20203;-60
2022/01/04 05:18:23;;;;;;;6.37;3.43;;;4.90;80.10;;;;;;6270213;28;20208;-61
2022/01/04 05:21:24;;;;;;;7.47;4.07;;;4.90;80.10;;;;;;6269470;28;20271;-61
2022/01/04 05:24:24;;;;;;;4.80;3.10;;;4.90;80.20;;;;;;6303135;28;20226;-61
2022/01/04 05:27:25;;;;;;;5.30;3.20;;;4.80;80.30;;;;;;6302631;28;20255;-61
2022/01/04 05:30:26;;;;;;;7.33;3.53;;;4.90;80.40;;;;;;6285091;28;20263;-60
2022/01/04 05:33:27;;;;;;;3.60;2.87;;;4.80;80.20;;;;;;6304734;28;20183;-60
2022/01/04 05:36:28;;;;;;;4.87;2.93;;;4.90;80.50;;;;;;6304315;28;20202;-60
2022/01/04 05:39:28;;;;;;;8.53;3.30;;;4.80;80.60;;;;;;6286810;28;20214;-61
2022/01/04 05:42:29;;;;;;;5.27;3.13;;;4.80;80.80;;;;;;6288293;28;20184;-60
2022/01/04 05:45:31;;;;;;;4.57;3.23;;;4.90;80.80;;;;;;6301631;28;20239;-60
2022/01/04 05:48:32;;;;;;;4.13;2.80;;;4.80;80.80;;;;;;6307214;28;20192;-60
2022/01/04 05:51:33;;;;;;;6.07;3.33;;;4.80;80.70;;;;;;6302074;28;20199;-61
2022/01/04 05:54:35;;;;;;;6.43;3.47;;;4.90;80.60;;;;;;6302758;28;20218;-61
2022/01/04 05:57:35;;;;;;;6.30;3.10;;;4.90;80.60;;;;;;6307117;28;20220;-60
2022/01/04 06:00:37;;;;;;;6.13;3.33;;;4.90;80.70;;;;;;6318832;28;20191;-60
2022/01/04 06:03:38;;;;;;;6.17;3.87;;;4.90;80.30;;;;;;6296459;28;20213;-60
2022/01/04 06:06:41;;;;;;;6.60;4.13;;;4.90;80.30;;;;;;6296941;28;20199;-60
2022/01/04 06:09:45;;;;;;;4.67;3.10;;;4.90;80.50;;;;;;6282328;28;20185;-60
2022/01/04 06:15:47;;;;;;;6.77;3.30;;;4.90;80.50;;;;;;6288535;28;20195;-61
2022/01/04 06:18:48;;;;;;;6.30;3.17;;;4.90;80.50;;;;;;6301228;28;20208;-60
2022/01/04 06:21:48;;;;;;;6.00;3.53;;;5.00;80.50;;;;;;6283445;28;20220;-61
2022/01/04 06:24:50;;;;;;;8.33;3.67;;;5.00;80.40;;;;;;6264757;28;20224;-60
2022/01/04 06:27:53;;;;;;;5.23;3.33;;;5.00;80.50;;;;;;6282121;28;20189;-61
2022/01/04 06:30:54;;;;;;;5.33;3.17;;;5.10;80.40;;;;;;6283694;28;20195;-60
2022/01/04 06:33:55;;;;;;;5.77;2.97;;;5.10;80.70;;;;;;6293621;28;20199;-61
2022/01/04 06:36:57;;;;;;;4.53;2.57;;;5.10;80.80;;;;;;6289447;28;20219;-60
2022/01/04 06:39:58;;;;;;;4.70;2.80;;;5.20;80.80;;;;;;6306038;28;20207;-61
2022/01/04 06:42:59;;;;;;;5.90;3.00;;;5.20;80.60;;;;;;6290191;28;20216;-61
2022/01/04 06:45:59;;;;;;;3.23;2.27;;;5.30;80.60;;;;;;6305260;28;20220;-60
2022/01/04 06:49:01;;;;;;;5.30;2.77;;;5.30;80.10;;;;;;6305946;28;20199;-60
2022/01/04 06:52:02;;;;;;;5.37;2.90;;;5.40;79.90;;;;;;6306800;28;20219;-61
2022/01/04 06:55:03;;;;;;;4.53;2.70;;;5.40;79.90;;;;;;6305790;28;20191;-61
2022/01/04 06:58:04;;;;;;;2.93;2.23;;;5.40;80.00;;;;;;6294124;28;20195;-61
2022/01/04 07:01:05;;;;;;;3.17;2.30;;;5.40;80.00;;;;;;6248557;28;20195;-60
2022/01/04 07:04:07;;;;;;;4.20;2.13;;;5.50;79.80;;;;;;6260537;28;20239;-61
2022/01/04 07:07:08;;;;;;;4.43;2.77;;;5.50;79.70;;;;;;6322930;28;20195;-60
2022/01/04 07:10:09;;;;;;;3.57;2.80;;;5.40;78.80;;;;;;6304800;28;20192;-61
2022/01/04 07:13:10;;;;;;;5.90;2.83;;;5.50;79.10;;;;;;6323518;28;20240;-61
2022/01/04 07:16:11;;;;;;;5.43;2.70;;;5.60;78.90;;;;;;6297881;28;20203;-60
2022/01/04 07:19:12;;;;;;;3.50;2.50;;;5.70;78.90;;;;;;6305682;28;20238;-60
2022/01/04 07:22:13;;;;;;;6.43;2.80;;;5.80;78.40;;;;;;6294753;28;20196;-60
2022/01/04 07:25:13;;;;;;;4.63;2.90;;;5.80;77.50;;;;;;6280341;28;20235;-60
2022/01/04 07:28:14;;;;;;;5.07;2.87;;;5.90;77.60;;;;;;6280943;28;20193;-61
2022/01/04 07:31:16;;;;;;;6.60;3.07;;;5.90;77.90;;;;;;6310642;28;20225;-60
2022/01/04 07:34:17;;;;;;;5.83;4.30;;;6.00;78.00;;;;;;6289698;28;20202;-61
2022/01/04 07:37:18;;;;;;;9.00;4.73;;;6.00;77.80;;;;;;6284545;28;20200;-60
2022/01/04 07:40:20;;;;;;;11.73;6.13;;;6.00;77.70;;;;;;6281366;28;20195;-61
2022/01/04 07:43:21;;;;;;;9.77;6.10;;;6.10;77.40;;;;;;6302597;28;20220;-61
2022/01/04 07:46:23;;;;;;;9.27;5.57;;;6.00;77.60;;;;;;6304964;28;20290;-61
2022/01/04 07:49:24;;;;;;;11.93;7.03;;;6.10;78.00;;;;;;6298882;28;20234;-60
2022/01/04 07:52:25;;;;;;;11.87;6.20;;;6.10;77.80;;;;;;6305288;28;20188;-60
2022/01/04 07:55:26;;;;;;;10.13;6.70;;;6.10;78.00;;;;;;6305657;28;20277;-60
2022/01/04 07:58:26;;;;;;;13.20;7.43;;;6.10;78.00;;;;;;6288230;28;20195;-60
2022/01/04 08:01:28;;;;;;;11.20;6.63;;;6.10;77.80;;;;;;6288928;28;20196;-61
2022/01/04 08:04:29;;;;;;;6.77;5.83;;;6.10;77.90;;;;;;6288656;28;20216;-61
2022/01/04 08:07:30;;;;;;;11.07;7.00;;;6.10;78.10;;;;;;6273875;28;20215;-61
2022/01/04 08:10:31;;;;;;;8.17;6.43;;;6.10;78.00;;;;;;6280148;28;20188;-60
2022/01/04 08:13:32;;;;;;;11.93;6.83;;;6.20;78.10;;;;;;6302903;28;20251;-60
2022/01/04 08:16:33;;;;;;;13.17;6.67;;;6.20;78.00;;;;;;6291707;28;20335;-61
2022/01/04 08:19:33;;;;;;;9.87;7.00;;;6.30;77.70;;;;;;6297021;28;20199;-60
2022/01/04 08:22:35;;;;;;;6.83;5.10;;;6.30;77.80;;;;;;6279410;28;20197;-60
2022/01/04 08:25:37;;;;;;;8.47;5.73;;;6.30;77.70;;;;;;6295175;28;20298;-60
2022/01/04 08:28:38;;;;;;;8.53;5.83;;;6.50;77.70;;;;;;6296096;28;20234;-60
2022/01/04 08:31:39;;;;;;;11.27;7.50;;;6.50;77.80;;;;;;6299811;28;20192;-61
2022/01/04 08:34:40;;;;;;;13.97;9.70;;;6.60;77.90;;;;;;6280651;28;20184;-60
2022/01/04 08:37:41;;;;;;;14.40;9.40;;;6.70;77.40;;;;;;6278549;28;20203;-61
2022/01/04 08:40:41;;;;;;;13.97;8.97;;;6.80;77.10;;;;;;6263391;28;20199;-61
2022/01/04 08:43:42;;;;;;;12.23;7.73;;;6.80;76.90;;;;;;6283034;28;20212;-60
2022/01/04 08:46:43;;;;;;;8.10;4.40;;;6.90;76.10;;;;;;6303054;28;20192;-61
2022/01/04 08:49:44;;;;;;;8.77;5.20;;;7.00;73.80;;;;;;6305741;28;20203;-61
2022/01/04 08:52:45;;;;;;;6.87;4.53;;;7.10;74.10;;;;;;6284887;28;20206;-61
2022/01/04 08:55:47;;;;;;;8.67;4.67;;;7.20;73.10;;;;;;6288124;28;20232;-61
2022/01/04 08:58:48;;;;;;;9.23;5.37;;;7.30;73.10;;;;;;6263616;28;20222;-61
2022/01/04 09:01:49;;;;;;;10.63;4.37;;;7.40;72.90;;;;;;6313450;28;20196;-61
2022/01/04 09:04:50;;;;;;;6.73;4.20;;;7.60;71.60;;;;;;6279607;28;20212;-61
2022/01/04 09:07:51;;;;;;;6.43;4.30;;;7.80;70.80;;;;;;6262119;28;20199;-60
2022/01/04 09:10:52;;;;;;;5.83;3.23;;;7.80;70.20;;;;;;6277862;28;20185;-61
2022/01/04 09:20:29;;;;;;;6.40;4.10;;;8.10;70.10;;;;;;6327383;28;20197;-60
2022/01/04 09:23:30;;;;;;;6.10;3.47;;;8.20;69.30;;;;;;6308356;28;20184;-60
2022/01/04 09:26:31;;;;;;;5.30;3.43;;;8.30;69.20;;;;;;6324049;28;20203;-60
2022/01/04 09:29:33;;;;;;;8.53;4.57;;;8.40;68.90;;;;;;6308075;28;20180;-60
2022/01/04 09:32:35;;;;;;;8.93;4.13;;;8.30;68.30;;;;;;6291648;28;20192;-61
2022/01/04 09:35:37;;;;;;;7.07;3.83;;;8.30;68.20;;;;;;6307093;28;20184;-60
2022/01/04 09:38:38;;;;;;;6.97;3.70;;;8.30;68.70;;;;;;6307807;28;20185;-60
2022/01/04 09:41:40;;;;;;;6.47;4.20;;;8.50;68.90;;;;;;6306752;28;20192;-61
2022/01/04 09:44:41;;;;;;;9.80;4.30;;;8.40;68.30;;;;;;6308572;28;20306;-61
2022/01/04 09:47:42;;;;;;;9.57;5.90;;;8.50;67.60;;;;;;6305034;28;20245;-60
2022/01/04 09:50:43;;;;;;;9.27;5.50;;;8.50;67.30;;;;;;6340216;28;20180;-61
2022/01/04 09:53:44;;;;;;;10.60;6.27;;;8.60;67.20;;;;;;6295377;28;20195;-60
2022/01/04 09:56:47;;;;;;;9.23;5.90;;;8.60;68.00;;;;;;6266514;28;20308;-61
2022/01/04 09:59:49;;;;;;;9.27;6.10;;;8.60;68.10;;;;;;6294450;28;20204;-60
2022/01/04 10:02:50;;;;;;;11.37;6.17;;;8.70;67.80;;;;;;6283388;28;20305;-61
2022/01/04 10:06:07;;;;;;;10.83;7.57;;;8.70;68.10;;;;;;6299766;28;20208;-60
2022/01/04 10:09:11;;;;;;;11.47;7.67;;;8.80;67.40;;;;;;6311642;28;20181;-61
2022/01/04 10:12:18;;;;;;;14.13;8.10;;;8.80;67.50;;;;;;6286472;28;20319;-60
2022/01/04 10:15:37;;;;;;;14.90;8.37;;;8.90;68.00;;;;;;6300998;28;20191;-61
2022/01/04 10:18:38;;;;;;;10.70;7.70;;;8.80;67.90;;;;;;6273978;28;20206;-61
2022/01/04 10:21:39;;;;;;;10.03;7.00;;;8.90;68.00;;;;;;6241651;28;20205;-60
2022/01/04 10:24:40;;;;;;;7.57;6.00;;;8.90;69.00;;;;;;6289860;28;20214;-61
2022/01/04 10:27:41;;;;;;;6.63;5.40;;;9.00;67.60;;;;;;6273272;28;20216;-61
2022/01/04 10:30:44;;;;;;;6.83;4.90;;;9.20;68.00;;;;;;6256759;28;20213;-61
2022/01/04 10:33:51;;;;;;;5.57;4.03;;;9.30;67.90;;;;;;6290027;28;20288;-60
2022/01/04 10:36:52;;;;;;;6.83;4.37;;;9.30;67.20;;;;;;6273705;28;20201;-60
2022/01/04 10:40:13;;;;;;;5.30;3.60;;;9.30;66.70;;;;;;6256905;28;20193;-61
2022/01/04 10:43:23;;;;;;;4.83;4.00;;;9.50;66.00;;;;;;6282334;28;20254;-60
2022/01/04 10:46:41;;;;;;;4.87;3.80;;;9.70;64.60;;;;;;6279987;28;20197;-61
2022/01/04 10:49:42;;;;;;;3.73;3.20;;;9.90;64.20;;;;;;6281255;28;20189;-61
2022/01/04 10:52:43;;;;;;;4.73;3.80;;;10.00;65.20;;;;;;6280901;28;20189;-61
2022/01/04 10:55:44;;;;;;;5.77;3.63;;;10.20;64.60;;;;;;6273844;28;20197;-60
2022/01/04 10:58:48;;;;;;;4.93;3.40;;;10.30;64.10;;;;;;6290599;28;20206;-61
2022/01/04 11:01:50;;;;;;;5.47;3.37;;;10.50;63.80;;;;;;6290326;28;20217;-61
2022/01/04 11:05:12;;;;;;;3.87;3.13;;;10.70;63.70;;;;;;6291916;28;20224;-61
2022/01/04 11:08:17;;;;;;;5.57;3.50;;;10.70;59.90;;;;;;6297385;28;20182;-58
2022/01/04 11:11:18;;;;;;;3.53;3.07;;;10.80;59.70;;;;;;6289832;28;20224;-58
2022/01/04 11:14:19;;;;;;;4.80;3.93;;;10.80;60.50;;;;;;6314383;28;20203;-58
2022/01/04 11:17:20;;;;;;;4.90;3.43;;;10.90;60.20;;;;;;6292908;28;20199;-58
2022/01/04 11:20:21;;;;;;;4.40;3.30;;;11.10;60.40;;;;;;6305229;28;20243;-58
2022/01/04 11:23:27;;;;;;;4.03;3.20;;;11.30;59.80;;;;;;6306137;28;20192;-58
2022/01/04 11:26:29;;;;;;;3.37;2.80;;;11.30;57.80;;;;;;6306102;28;20193;-58
2022/01/04 11:29:34;;;;;;;4.87;3.10;;;11.50;58.50;;;;;;6304905;28;20193;-58
2022/01/04 11:32:41;;;;;;;5.07;2.80;;;11.70;57.00;;;;;;6289683;28;20192;-58
2022/01/04 11:35:42;;;;;;;5.13;3.00;;;11.80;57.00;;;;;;6305324;28;20188;-58
2022/01/04 11:38:42;;;;;;;5.77;3.40;;;11.70;56.10;;;;;;6321724;28;20291;-58
2022/01/04 11:41:43;;;;;;;4.77;3.00;;;11.50;57.30;;;;;;6263362;28;20219;-58
2022/01/04 11:44:47;;;;;;;3.63;2.63;;;11.40;57.30;;;;;;6278726;28;20210;-58
2022/01/04 11:47:48;;;;;;;4.87;3.23;;;11.40;58.40;;;;;;6313050;28;20244;-58
2022/01/04 11:50:49;;;;;;;5.70;3.30;;;11.50;57.80;;;;;;6314628;28;20191;-58
2022/01/04 11:54:21;;;;;;;5.40;3.33;;;11.50;58.00;;;;;;6312721;28;20191;-58
2022/01/04 11:57:22;;;;;;;6.93;4.90;;;11.50;56.60;;;;;;6291863;28;20303;-58
2022/01/04 12:00:28;;;;;;;4.87;4.37;;;11.60;56.80;;;;;;6288728;28;20311;-58
2022/01/04 12:03:56;;;;;;;6.43;3.67;;;11.50;57.80;;;;;;6337292;28;20195;-61
2022/01/04 12:06:57;;;;;;;4.07;3.10;;;11.50;58.90;;;;;;6260554;28;20194;-61
2022/01/04 12:10:22;;;;;;;7.23;3.70;;;11.60;57.90;;;;;;6246811;28;20216;-60
2022/01/04 12:13:25;;;;;;;5.37;3.17;;;11.50;56.20;;;;;;6323609;28;20229;-61
2022/01/04 12:16:39;;;;;;;5.53;4.37;;;11.50;56.80;;;;;;6285410;28;20237;-61
2022/01/04 12:19:49;;;;;;;6.80;3.90;;;11.50;56.60;;;;;;6287437;28;20193;-61
2022/01/04 12:22:50;;;;;;;7.73;4.50;;;11.50;57.10;;;;;;6294955;28;20190;-60
2022/01/04 12:26:11;;;;;;;5.07;4.10;;;11.50;56.30;;;;;;6277994;28;20223;-61
2022/01/04 12:29:12;;;;;;;8.13;4.23;;;11.30;56.90;;;;;;6295449;28;20288;-61
2022/01/04 12:32:21;;;;;;;8.03;4.47;;;11.40;56.80;;;;;;6259499;28;20193;-61
2022/01/04 12:35:41;;;;;;;6.77;3.87;;;11.30;56.80;;;;;;6304025;28;20194;-60
2022/01/04 12:38:47;;;;;;;8.43;4.17;;;11.40;56.30;;;;;;6284858;28;20197;-61
2022/01/04 12:41:54;;;;;;;8.03;5.17;;;11.60;56.00;;;;;;6271407;28;20193;-61
2022/01/04 12:44:57;;;;;;;10.00;5.10;;;11.60;56.10;;;;;;6279572;28;20209;-61
2022/01/04 12:47:57;;;;;;;9.20;4.70;;;11.70;56.10;;;;;;6262316;28;20208;-61
2022/01/04 12:51:26;;;;;;;12.67;5.80;;;11.80;55.70;;;;;;6277904;28;20188;-61
2022/01/04 12:54:38;;;;;;;10.57;5.97;;;11.80;56.60;;;;;;6288750;28;20192;-61
2022/01/04 12:57:38;;;;;;;6.10;4.47;;;11.90;56.10;;;;;;6239146;28;20189;-61
2022/01/04 13:00:39;;;;;;;8.60;4.90;;;12.00;56.10;;;;;;6238705;28;20189;-61
2022/01/04 13:03:40;;;;;;;6.93;5.33;;;11.90;56.50;;;;;;6238820;28;20192;-61
2022/01/04 13:06:41;;;;;;;11.90;6.20;;;11.90;56.20;;;;;;6238301;28;20217;-60
2022/01/04 13:09:42;;;;;;;12.13;5.53;;;11.80;56.80;;;;;;6238944;28;20238;-60
2022/01/04 13:12:53;;;;;;;8.67;5.67;;;11.80;57.00;;;;;;6271542;28;20268;-61
2022/01/04 13:15:54;;;;;;;13.87;5.43;;;11.60;56.60;;;;;;6319676;28;20193;-61
2022/01/04 13:19:16;;;;;;;14.30;5.87;;;11.50;57.60;;;;;;6258049;28;20200;-61
2022/01/04 13:22:20;;;;;;;9.20;4.80;;;11.40;57.70;;;;;;6252015;28;20198;-61
2022/01/04 13:25:20;;;;;;;9.27;4.93;;;11.40;58.40;;;;;;6271063;28;20224;-60
2022/01/04 13:28:21;;;;;;;7.23;5.40;;;11.40;57.20;;;;;;6287735;28;20185;-60
2022/01/04 13:31:23;;;;;;;10.80;5.53;;;11.30;57.90;;;;;;6298070;28;20244;-61
2022/01/04 13:34:24;;;;;;;11.93;5.97;;;11.30;57.60;;;;;;6278670;28;20278;-61
2022/01/04 13:37:25;;;;;;;7.43;4.80;;;11.50;57.40;;;;;;6279549;28;20204;-61
2022/01/04 13:40:29;;;;;;;9.53;5.67;;;11.60;56.60;;;;;;6295734;28;20322;-61
2022/01/04 13:43:35;;;;;;;10.13;6.37;;;11.70;56.50;;;;;;6295621;28;20193;-60
2022/01/04 13:46:36;;;;;;;9.60;6.80;;;11.70;56.40;;;;;;6292809;28;20206;-60
2022/01/04 13:49:37;;;;;;;11.60;7.30;;;11.60;56.90;;;;;;6285884;28;20178;-60
2022/01/04 13:52:38;;;;;;;15.23;6.57;;;11.70;56.60;;;;;;6295962;28;20193;-60
2022/01/04 13:56:01;;;;;;;12.43;6.43;;;11.70;56.90;;;;;;6278610;28;20212;-61
2022/01/04 13:59:03;;;;;;;10.90;6.77;;;11.70;57.80;;;;;;6295735;28;20217;-61
2022/01/04 14:02:22;;;;;;;12.17;6.23;;;11.60;58.50;;;;;;6254089;28;20185;-61
2022/01/04 14:05:23;;;;;;;12.00;6.53;;;11.60;58.70;;;;;;6295564;28;20351;-60
2022/01/04 14:08:49;;;;;;;13.57;6.03;;;11.50;59.70;;;;;;6282010;28;20201;-61
2022/01/04 14:12:08;;;;;;;10.53;6.20;;;11.50;59.00;;;;;;6297471;28;20297;-61
2022/01/04 14:15:10;;;;;;;12.00;7.37;;;11.30;58.90;;;;;;6294107;28;20288;-61
2022/01/04 14:18:10;;;;;;;12.00;5.77;;;11.30;58.60;;;;;;6265937;28;20221;-60
2022/01/04 14:21:11;;;;;;;10.57;5.97;;;11.20;59.50;;;;;;6264747;28;20204;-61
2022/01/04 14:24:43;;;;;;;12.57;5.47;;;11.20;60.10;;;;;;6281030;28;20222;-61
2022/01/04 14:27:48;;;;;;;11.00;6.17;;;11.10;60.00;;;;;;6290564;28;20501;-61
2022/01/04 14:30:49;;;;;;;10.17;6.47;;;11.00;61.90;;;;;;6296780;28;20254;-60
2022/01/04 14:33:51;;;;;;;6.30;4.60;;;10.90;61.60;;;;;;6281321;28;20181;-61
2022/01/04 14:36:51;;;;;;;6.57;5.23;;;10.80;62.10;;;;;;6245963;28;20186;-60
2022/01/04 14:39:54;;;;;;;12.23;5.70;;;10.80;62.60;;;;;;6289294;28;20189;-60
2022/01/04 14:42:56;;;;;;;6.27;5.27;;;10.70;63.60;;;;;;6273572;28;20194;-61
2022/01/04 14:45:57;;;;;;;13.17;6.77;;;10.60;63.90;;;;;;6273662;28;20340;-60
2022/01/04 14:48:58;;;;;;;7.10;5.73;;;10.40;63.50;;;;;;6272920;28;20194;-60
2022/01/04 14:52:01;;;;;;;8.60;5.73;;;10.30;64.20;;;;;;6274121;28;20198;-61
2022/01/04 14:55:02;;;;;;;9.57;6.00;;;10.10;64.80;;;;;;6307582;28;20200;-61
2022/01/04 14:58:03;;;;;;;10.30;5.83;;;10.00;64.40;;;;;;6257730;28;20196;-60
2022/01/04 15:01:04;;;;;;;9.40;5.00;;;9.80;65.30;;;;;;6274893;28;20206;-61
2022/01/04 15:04:06;;;;;;;9.67;4.53;;;9.70;66.00;;;;;;6265867;28;20249;-61
2022/01/04 15:07:08;;;;;;;7.43;5.13;;;9.50;66.60;;;;;;6274218;28;20201;-61
2022/01/04 15:10:09;;;;;;;10.73;6.03;;;9.30;66.90;;;;;;6257703;28;20193;-61
2022/01/04 15:13:10;;;;;;;9.07;5.80;;;9.20;67.50;;;;;;6283488;28;20359;-60
2022/01/04 15:16:10;;;;;;;7.13;4.87;;;9.00;68.00;;;;;;6281402;28;20187;-60
2022/01/04 15:19:11;;;;;;;8.87;5.50;;;8.80;68.80;;;;;;6294264;28;20193;-61
2022/01/04 15:22:12;;;;;;;9.77;5.27;;;8.60;69.40;;;;;;6288571;28;20184;-60
2022/01/04 15:25:14;;;;;;;9.43;6.40;;;8.50;69.90;;;;;;6306026;28;20326;-60
2022/01/04 15:28:15;;;;;;;9.47;6.30;;;8.30;70.10;;;;;;6303741;28;20190;-60
2022/01/04 15:31:16;;;;;;;7.80;6.60;;;8.20;70.90;;;;;;6312304;28;20221;-61
2022/01/04 15:34:17;;;;;;;11.57;5.53;;;8.00;71.50;;;;;;6306339;28;20257;-61
2022/01/04 15:37:18;;;;;;;14.23;6.10;;;7.90;71.80;;;;;;6290015;28;20184;-60
2022/01/04 15:40:19;;;;;;;9.20;6.30;;;7.80;72.30;;;;;;6313986;28;20264;-60
2022/01/04 15:43:20;;;;;;;10.63;5.30;;;7.80;72.40;;;;;;6322149;28;20191;-61
2022/01/04 15:46:23;;;;;;;11.37;5.93;;;7.70;72.70;;;;;;6298324;28;20215;-60
2022/01/04 15:49:26;;;;;;;7.57;5.40;;;7.50;73.00;;;;;;6287950;28;20199;-60
2022/01/04 15:52:27;;;;;;;8.13;5.67;;;7.40;73.50;;;;;;6307836;28;20208;-60
2022/01/04 15:55:27;;;;;;;8.73;5.43;;;7.30;73.90;;;;;;6281167;28;20185;-61
2022/01/04 15:58:28;;;;;;;9.57;5.90;;;7.30;74.10;;;;;;6299508;28;20207;-61
2022/01/04 16:01:29;;;;;;;7.80;5.30;;;7.20;74.60;;;;;;6304253;28;20192;-60
2022/01/04 16:04:30;;;;;;;6.03;5.17;;;7.10;74.90;;;;;;6303511;28;20340;-60
2022/01/04 16:07:31;;;;;;;9.03;5.40;;;7.10;75.00;;;;;;6302427;28;20283;-61